Time;durP1;ratioP1;P1;durP2;ratioP2;P2;SDS_P1;SDS_P2;PMS_P1;PMS_P2;Temp;Humidity;BMP_temperature;BMP_pressure;BME280_temperature;BME280_humidity;BME280_pressure;Samples;Min_cycle;Max_cycle;Signal;HPM_P1;HPM_P2
2022/06/04 00:00:25;;;;;;;0.00;0.00;;;;;;;;;;5096069;28;20277;-70
2022/06/04 00:02:51;;;;;;;0.10;0.10;;;;;;;;;;5129430;28;20203;-69
2022/06/04 00:05:19;;;;;;;0.10;0.10;;;;;;;;;;5094509;28;20207;-68
2022/06/04 00:07:45;;;;;;;0.10;0.10;;;;;;;;;;5129940;28;20211;-69
2022/06/04 00:15:43;;;;;;;0.10;0.10;;;;;;;;;;5101382;28;20378;-68
2022/06/04 00:18:10;;;;;;;0.00;0.00;;;;;;;;;;5123454;28;20204;-68
2022/06/04 00:20:36;;;;;;;0.10;0.10;;;;;;;;;;5099811;28;20567;-69
2022/06/04 00:23:04;;;;;;;0.00;0.00;;;;;;;;;;5125505;28;20200;-68
2022/06/04 00:25:33;;;;;;;0.00;0.00;;;;;;;;;;5098283;28;20238;-68
2022/06/04 00:28:00;;;;;;;0.00;0.00;;;;;;;;;;5129767;27;20227;-69
2022/06/04 00:30:26;;;;;;;0.00;0.00;;;;;;;;;;5100450;27;20247;-67
2022/06/04 00:32:52;;;;;;;0.08;0.08;;;;;;;;;;5131978;27;20235;-70
2022/06/04 00:35:19;;;;;;;0.00;0.00;;;;;;;;;;5098660;27;20393;-69
2022/06/04 00:37:45;;;;;;;0.00;0.00;;;;;;;;;;5133897;27;20224;-69
2022/06/04 00:40:14;;;;;;;0.10;0.10;;;;;;;;;;5096532;27;20251;-68
2022/06/04 00:42:42;;;;;;;0.00;0.00;;;;;;;;;;5135507;27;20278;-70
2022/06/04 00:45:27;;;;;;;0.00;0.00;;;;;;;;;;5095652;27;20203;-68
2022/06/04 00:47:53;;;;;;;0.00;0.00;;;;;;;;;;5131788;27;20582;-68
2022/06/04 00:50:21;;;;;;;0.10;0.10;;;;;;;;;;5098360;27;20204;-67
2022/06/04 00:52:49;;;;;;;0.05;0.05;;;;;;;;;;5133172;27;20254;-68
2022/06/04 00:55:15;;;;;;;0.10;0.10;;;;;;;;;;5097173;27;20246;-68
2022/06/04 00:57:51;;;;;;;0.10;0.10;;;;;;;;;;5134481;27;20275;-66
2022/06/04 01:00:20;;;;;;;0.00;0.00;;;;;;;;;;5097650;27;20203;-68
2022/06/04 01:02:53;;;;;;;0.00;0.00;;;;;;;;;;5132901;27;20204;-67
2022/06/04 01:05:26;;;;;;;0.00;0.00;;;;;;;;;;5098257;27;20548;-67
2022/06/04 01:08:02;;;;;;;0.00;0.00;;;;;;;;;;5131373;27;20457;-70
2022/06/04 01:10:37;;;;;;;0.00;0.00;;;;;;;;;;5100437;27;20239;-68
2022/06/04 01:13:09;;;;;;;0.00;0.00;;;;;;;;;;5128131;27;20265;-70
2022/06/04 01:15:43;;;;;;;0.00;0.00;;;;;;;;;;5102516;27;20239;-70
2022/06/04 01:18:19;;;;;;;0.05;0.05;;;;;;;;;;5126971;27;20204;-69
2022/06/04 01:20:49;;;;;;;0.03;0.03;;;;;;;;;;5105132;27;20241;-68
2022/06/04 01:23:42;;;;;;;0.00;0.00;;;;;;;;;;5124934;27;20199;-67
2022/06/04 01:26:33;;;;;;;0.00;0.00;;;;;;;;;;5075009;27;20241;-67
2022/06/04 01:29:02;;;;;;;0.10;0.10;;;;;;;;;;5051623;28;20276;-69
2022/06/04 01:31:33;;;;;;;0.00;0.00;;;;;;;;;;5116358;27;20580;-68
2022/06/04 01:34:01;;;;;;;0.00;0.00;;;;;;;;;;5112862;27;20206;-68
2022/06/04 01:36:32;;;;;;;0.00;0.00;;;;;;;;;;5115522;27;20301;-69
2022/06/04 01:39:00;;;;;;;0.10;0.10;;;;;;;;;;5111940;27;20393;-67
2022/06/04 01:41:28;;;;;;;0.10;0.10;;;;;;;;;;5115780;27;20237;-69
2022/06/04 01:43:56;;;;;;;0.00;0.00;;;;;;;;;;5113806;27;20239;-69
2022/06/04 01:46:26;;;;;;;0.00;0.00;;;;;;;;;;5114312;27;20246;-68
2022/06/04 01:48:54;;;;;;;0.00;0.00;;;;;;;;;;5114686;27;20214;-69
2022/06/04 01:51:21;;;;;;;0.00;0.00;;;;;;;;;;5113656;27;20243;-68
2022/06/04 01:53:49;;;;;;;0.03;0.03;;;;;;;;;;5115404;27;20228;-69
2022/06/04 01:56:19;;;;;;;0.00;0.00;;;;;;;;;;5112622;27;20498;-69
2022/06/04 01:58:47;;;;;;;0.10;0.10;;;;;;;;;;5116264;27;20203;-69
2022/06/04 02:01:15;;;;;;;0.00;0.00;;;;;;;;;;5111880;27;20519;-69
2022/06/04 02:03:46;;;;;;;0.00;0.00;;;;;;;;;;5116884;27;20199;-69
2022/06/04 02:06:13;;;;;;;0.00;0.00;;;;;;;;;;5110966;27;20237;-68
2022/06/04 02:08:42;;;;;;;0.10;0.10;;;;;;;;;;5117655;27;20278;-68
2022/06/04 02:11:11;;;;;;;0.10;0.10;;;;;;;;;;5110185;27;20495;-69
2022/06/04 02:13:37;;;;;;;0.00;0.00;;;;;;;;;;5118066;27;20224;-69
2022/06/04 02:16:08;;;;;;;0.00;0.00;;;;;;;;;;5108584;27;20242;-69
2022/06/04 02:18:34;;;;;;;0.10;0.10;;;;;;;;;;5118830;27;20458;-69
2022/06/04 02:21:02;;;;;;;0.00;0.00;;;;;;;;;;5107818;27;20238;-67
2022/06/04 02:23:30;;;;;;;0.00;0.00;;;;;;;;;;5120375;27;20344;-68
2022/06/04 02:25:56;;;;;;;0.03;0.03;;;;;;;;;;5106482;27;20242;-69
2022/06/04 02:28:23;;;;;;;0.00;0.00;;;;;;;;;;5121687;27;20229;-69
2022/06/04 02:30:55;;;;;;;0.00;0.00;;;;;;;;;;5104582;27;20329;-68
2022/06/04 02:33:27;;;;;;;0.10;0.10;;;;;;;;;;5121874;27;20255;-70
2022/06/04 02:35:55;;;;;;;0.00;0.00;;;;;;;;;;5105536;27;20242;-68
2022/06/04 02:38:25;;;;;;;0.10;0.10;;;;;;;;;;5121701;27;20203;-69
2022/06/04 02:40:54;;;;;;;0.10;0.10;;;;;;;;;;5104654;27;20558;-69
2022/06/04 02:43:26;;;;;;;0.10;0.10;;;;;;;;;;5122027;27;20203;-67
2022/06/04 02:45:58;;;;;;;0.00;0.00;;;;;;;;;;5105232;27;20306;-67
2022/06/04 02:48:26;;;;;;;0.10;0.10;;;;;;;;;;5120884;27;20216;-68
2022/06/04 02:50:55;;;;;;;0.10;0.10;;;;;;;;;;5104854;27;20278;-69
2022/06/04 02:53:21;;;;;;;0.10;0.10;;;;;;;;;;5121476;27;20227;-69
2022/06/04 02:55:52;;;;;;;0.03;0.03;;;;;;;;;;5103550;27;20249;-69
2022/06/04 02:58:20;;;;;;;0.00;0.00;;;;;;;;;;5122386;27;20224;-70
2022/06/04 03:00:48;;;;;;;6.05;5.80;;;;;;;;;;5103260;27;20233;-68
2022/06/04 03:03:14;;;;;;;0.10;0.10;;;;;;;;;;5123526;27;20199;-69
2022/06/04 03:05:50;;;;;;;0.10;0.10;;;;;;;;;;5101465;27;20248;-69
2022/06/04 03:08:17;;;;;;;0.10;0.10;;;;;;;;;;5122716;27;20490;-68
2022/06/04 03:10:43;;;;;;;0.00;0.00;;;;;;;;;;5102121;27;20621;-68
2022/06/04 03:13:11;;;;;;;0.00;0.00;;;;;;;;;;5124309;27;20269;-68
2022/06/04 03:15:37;;;;;;;0.00;0.00;;;;;;;;;;5100187;27;20248;-69
2022/06/04 03:18:04;;;;;;;0.00;0.00;;;;;;;;;;5125898;27;20211;-69
2022/06/04 03:20:30;;;;;;;0.03;0.03;;;;;;;;;;5098495;27;20237;-69
2022/06/04 03:22:57;;;;;;;0.10;0.10;;;;;;;;;;5127757;27;20198;-69
2022/06/04 03:25:23;;;;;;;0.10;0.10;;;;;;;;;;5096593;27;20204;-68
2022/06/04 03:27:49;;;;;;;0.03;0.03;;;;;;;;;;5129537;27;20235;-70
2022/06/04 03:30:17;;;;;;;0.08;0.08;;;;;;;;;;5094412;27;20213;-70
2022/06/04 03:32:44;;;;;;;0.05;0.05;;;;;;;;;;5131627;27;20241;-69
2022/06/04 03:35:13;;;;;;;0.10;0.10;;;;;;;;;;5093020;28;20224;-69
2022/06/04 03:37:39;;;;;;;0.10;0.10;;;;;;;;;;5132851;27;20206;-68
2022/06/04 03:40:06;;;;;;;0.10;0.10;;;;;;;;;;5094857;28;20225;-69
2022/06/04 03:42:33;;;;;;;0.00;0.00;;;;;;;;;;5133888;27;20221;-70
2022/06/04 03:44:59;;;;;;;0.10;0.10;;;;;;;;;;5101840;28;20205;-70
2022/06/04 03:47:27;;;;;;;0.10;0.10;;;;;;;;;;5123931;28;20243;-70
2022/06/04 03:49:54;;;;;;;0.00;0.00;;;;;;;;;;5101745;28;20206;-68
2022/06/04 03:52:20;;;;;;;0.10;0.10;;;;;;;;;;5123958;28;20239;-69
2022/06/04 03:54:57;;;;;;;0.05;0.05;;;;;;;;;;5102072;28;20206;-69
2022/06/04 03:57:41;;;;;;;0.10;0.10;;;;;;;;;;5123819;28;20552;-68
2022/06/04 04:00:10;;;;;;;0.00;0.00;;;;;;;;;;5101641;28;20213;-69
2022/06/04 04:02:37;;;;;;;0.05;0.05;;;;;;;;;;5092378;28;20264;-69
2022/06/04 04:05:04;;;;;;;0.10;0.10;;;;;;;;;;5105481;28;20203;-69
2022/06/04 04:07:31;;;;;;;0.00;0.00;;;;;;;;;;5127856;27;20238;-70
2022/06/04 04:09:57;;;;;;;0.00;0.00;;;;;;;;;;5105915;28;20386;-68
2022/06/04 04:12:23;;;;;;;0.10;0.10;;;;;;;;;;5127789;27;22161;-68
2022/06/04 04:14:50;;;;;;;0.10;0.10;;;;;;;;;;5106024;28;20383;-70
2022/06/04 04:17:16;;;;;;;0.05;0.05;;;;;;;;;;5127668;27;20236;-68
2022/06/04 04:19:44;;;;;;;0.00;0.00;;;;;;;;;;5105822;28;20474;-69
2022/06/04 04:22:10;;;;;;;0.00;0.00;;;;;;;;;;5127512;27;20240;-69
2022/06/04 04:24:36;;;;;;;0.00;0.00;;;;;;;;;;5105703;28;20269;-70
2022/06/04 04:27:03;;;;;;;0.10;0.10;;;;;;;;;;5127001;27;20244;-69
2022/06/04 04:29:29;;;;;;;0.10;0.10;;;;;;;;;;5105768;28;20302;-71
2022/06/04 04:31:55;;;;;;;0.10;0.10;;;;;;;;;;5125435;27;20467;-69
2022/06/04 04:34:22;;;;;;;0.10;0.10;;;;;;;;;;5107140;27;20241;-69
2022/06/04 04:36:50;;;;;;;0.10;0.10;;;;;;;;;;5123003;27;20628;-68
2022/06/04 04:39:16;;;;;;;0.05;0.05;;;;;;;;;;5109192;27;20235;-69
2022/06/04 04:41:42;;;;;;;0.03;0.03;;;;;;;;;;5120999;27;20628;-69
2022/06/04 04:44:09;;;;;;;0.00;0.00;;;;;;;;;;5111071;27;20328;-69
2022/06/04 04:46:35;;;;;;;0.00;0.00;;;;;;;;;;5119426;27;20258;-69
2022/06/04 04:49:01;;;;;;;0.00;0.00;;;;;;;;;;5112904;27;20213;-72
2022/06/04 04:51:28;;;;;;;0.10;0.10;;;;;;;;;;5117209;27;20238;-69
2022/06/04 04:53:56;;;;;;;0.08;0.08;;;;;;;;;;5114682;27;20227;-69
2022/06/04 04:56:23;;;;;;;0.00;0.00;;;;;;;;;;5115176;27;20245;-69
2022/06/04 04:58:50;;;;;;;0.10;0.10;;;;;;;;;;5116080;27;20232;-69
2022/06/04 05:01:16;;;;;;;0.08;0.08;;;;;;;;;;5113503;27;20244;-69
2022/06/04 05:03:44;;;;;;;0.00;0.00;;;;;;;;;;5117773;27;20427;-68
2022/06/04 05:06:11;;;;;;;0.00;0.00;;;;;;;;;;5111722;27;20253;-68
2022/06/04 05:08:37;;;;;;;0.10;0.10;;;;;;;;;;5119054;27;20233;-70
2022/06/04 05:11:08;;;;;;;0.00;0.00;;;;;;;;;;5109685;27;20257;-69
2022/06/04 05:13:35;;;;;;;0.00;0.00;;;;;;;;;;5119730;27;20243;-70
2022/06/04 05:16:01;;;;;;;0.10;0.10;;;;;;;;;;5109481;27;20556;-70
2022/06/04 05:18:27;;;;;;;0.00;0.00;;;;;;;;;;5121399;27;20206;-70
2022/06/04 05:20:54;;;;;;;0.00;0.00;;;;;;;;;;5107135;27;20255;-69
2022/06/04 05:23:20;;;;;;;0.05;0.05;;;;;;;;;;5123414;27;20198;-69
2022/06/04 05:25:47;;;;;;;0.00;0.00;;;;;;;;;;5105106;27;20241;-70
2022/06/04 05:28:15;;;;;;;0.10;0.10;;;;;;;;;;5125191;27;20223;-70
2022/06/04 05:30:41;;;;;;;0.00;0.00;;;;;;;;;;5103892;27;20263;-70
2022/06/04 05:33:08;;;;;;;0.00;0.00;;;;;;;;;;5126725;27;20537;-68
2022/06/04 05:35:35;;;;;;;0.00;0.00;;;;;;;;;;5102025;27;20414;-69
2022/06/04 05:38:01;;;;;;;0.05;0.05;;;;;;;;;;5128500;27;20345;-70
2022/06/04 05:40:27;;;;;;;0.10;0.10;;;;;;;;;;5099564;27;20237;-69
2022/06/04 05:42:54;;;;;;;0.10;0.10;;;;;;;;;;5130345;27;20203;-69
2022/06/04 05:45:21;;;;;;;0.00;0.00;;;;;;;;;;5097710;27;20446;-69
2022/06/04 05:47:49;;;;;;;0.00;0.00;;;;;;;;;;5131923;27;20206;-70
2022/06/04 05:50:15;;;;;;;0.00;0.00;;;;;;;;;;5096139;27;20204;-69
2022/06/04 05:52:42;;;;;;;0.00;0.00;;;;;;;;;;5133481;27;20276;-69
2022/06/04 05:55:08;;;;;;;0.05;0.05;;;;;;;;;;5093954;28;20234;-71
2022/06/04 05:57:35;;;;;;;0.00;0.00;;;;;;;;;;5135389;27;20534;-69
2022/06/04 06:00:01;;;;;;;0.10;0.10;;;;;;;;;;5103300;28;20271;-71
2022/06/04 06:02:29;;;;;;;0.00;0.00;;;;;;;;;;5125788;27;20366;-69
2022/06/04 06:04:56;;;;;;;0.10;0.10;;;;;;;;;;5103713;28;20198;-71
2022/06/04 06:07:22;;;;;;;0.10;0.10;;;;;;;;;;5125510;27;20257;-68
2022/06/04 06:09:48;;;;;;;0.00;0.00;;;;;;;;;;5103696;28;20566;-69
2022/06/04 06:12:15;;;;;;;0.00;0.00;;;;;;;;;;5125733;27;20247;-70
2022/06/04 06:14:41;;;;;;;0.00;0.00;;;;;;;;;;5103292;28;20234;-69
2022/06/04 06:17:11;;;;;;;0.00;0.00;;;;;;;;;;5125419;27;20245;-68
2022/06/04 06:19:39;;;;;;;0.10;0.10;;;;;;;;;;5102915;28;20293;-70
2022/06/04 06:22:05;;;;;;;0.00;0.00;;;;;;;;;;5125279;27;20310;-69
2022/06/04 06:24:31;;;;;;;0.00;0.00;;;;;;;;;;5102843;28;20392;-69
2022/06/04 06:26:59;;;;;;;0.00;0.00;;;;;;;;;;5123253;27;20245;-69
2022/06/04 06:29:26;;;;;;;0.00;0.00;;;;;;;;;;5104681;27;20218;-69
2022/06/04 06:31:53;;;;;;;0.00;0.00;;;;;;;;;;5122029;27;20238;-69
2022/06/04 06:34:21;;;;;;;0.00;0.00;;;;;;;;;;5105674;27;20289;-72
2022/06/04 06:36:48;;;;;;;0.08;0.08;;;;;;;;;;5120258;27;20280;-69
2022/06/04 06:39:15;;;;;;;0.10;0.10;;;;;;;;;;5107271;27;20208;-70
2022/06/04 06:41:42;;;;;;;0.00;0.00;;;;;;;;;;5118458;27;20551;-70
2022/06/04 06:44:10;;;;;;;1.88;1.85;;;;;;;;;;5108851;27;20232;-68
2022/06/04 06:46:38;;;;;;;0.10;0.10;;;;;;;;;;5117259;27;20249;-70
2022/06/04 06:49:06;;;;;;;0.10;0.10;;;;;;;;;;5109222;27;20213;-69
2022/06/04 06:51:34;;;;;;;0.05;0.05;;;;;;;;;;5115951;27;20589;-70
2022/06/04 06:54:02;;;;;;;0.00;0.00;;;;;;;;;;5110931;27;20520;-69
2022/06/04 06:56:30;;;;;;;0.10;0.10;;;;;;;;;;5114836;27;20239;-70
2022/06/04 06:58:56;;;;;;;0.03;0.03;;;;;;;;;;5112001;27;20232;-69
2022/06/04 07:01:24;;;;;;;0.03;0.03;;;;;;;;;;5113070;27;20284;-70
2022/06/04 07:03:51;;;;;;;0.00;0.00;;;;;;;;;;5113282;27;20201;-71
2022/06/04 07:06:27;;;;;;;0.10;0.10;;;;;;;;;;5111529;27;20685;-70
2022/06/04 07:08:54;;;;;;;0.10;0.10;;;;;;;;;;5112551;27;20236;-70
2022/06/04 07:11:22;;;;;;;0.00;0.00;;;;;;;;;;5112229;27;20238;-69
2022/06/04 07:13:48;;;;;;;0.00;0.00;;;;;;;;;;5114152;27;20289;-69
2022/06/04 07:16:15;;;;;;;0.00;0.00;;;;;;;;;;5110711;27;20446;-69
2022/06/04 07:18:41;;;;;;;0.00;0.00;;;;;;;;;;5115724;27;20379;-69
2022/06/04 07:21:08;;;;;;;0.10;0.10;;;;;;;;;;5108695;27;20246;-69
2022/06/04 07:23:36;;;;;;;0.00;0.00;;;;;;;;;;5117761;27;20202;-70
2022/06/04 07:26:03;;;;;;;0.00;0.00;;;;;;;;;;5106993;27;20245;-70
2022/06/04 07:28:32;;;;;;;0.00;0.00;;;;;;;;;;5119043;27;20233;-68
2022/06/04 07:30:58;;;;;;;0.00;0.00;;;;;;;;;;5105798;27;20246;-69
2022/06/04 07:33:27;;;;;;;0.05;0.05;;;;;;;;;;5120043;27;20221;-68
2022/06/04 07:35:53;;;;;;;0.10;0.10;;;;;;;;;;5103751;28;20240;-69
2022/06/04 07:38:20;;;;;;;0.10;0.10;;;;;;;;;;5120842;27;20285;-69
2022/06/04 07:40:47;;;;;;;0.00;0.00;;;;;;;;;;5102624;28;20313;-69
2022/06/04 07:43:14;;;;;;;0.00;0.00;;;;;;;;;;5122712;27;20209;-69
2022/06/04 07:45:42;;;;;;;0.00;0.00;;;;;;;;;;5100747;27;20289;-70
2022/06/04 07:48:08;;;;;;;0.08;0.08;;;;;;;;;;5124416;28;20323;-69
2022/06/04 07:50:36;;;;;;;0.10;0.10;;;;;;;;;;5098933;28;20331;-70
2022/06/04 07:53:02;;;;;;;0.00;0.00;;;;;;;;;;5126309;28;20390;-68
2022/06/04 07:55:29;;;;;;;0.00;0.00;;;;;;;;;;5097424;28;20264;-70
2022/06/04 07:57:56;;;;;;;0.00;0.00;;;;;;;;;;5127365;28;20213;-69
2022/06/04 08:00:23;;;;;;;0.10;0.10;;;;;;;;;;5095640;28;20387;-69
2022/06/04 08:02:52;;;;;;;0.00;0.00;;;;;;;;;;5129278;28;20224;-70
2022/06/04 08:05:19;;;;;;;0.00;0.00;;;;;;;;;;5094629;28;20261;-68
2022/06/04 08:07:45;;;;;;;0.05;0.05;;;;;;;;;;5130108;28;20220;-70
2022/06/04 08:10:13;;;;;;;0.00;0.00;;;;;;;;;;5092620;28;20206;-69
2022/06/04 08:12:42;;;;;;;0.00;0.00;;;;;;;;;;5132121;28;20204;-69
2022/06/04 08:15:09;;;;;;;0.00;0.00;;;;;;;;;;5091698;28;20227;-73
2022/06/04 08:17:36;;;;;;;0.00;0.00;;;;;;;;;;5132727;28;20205;-72
2022/06/04 08:20:04;;;;;;;0.00;0.00;;;;;;;;;;5101412;28;20393;-71
2022/06/04 08:22:31;;;;;;;0.10;0.10;;;;;;;;;;5089532;28;20214;-70
2022/06/04 08:24:57;;;;;;;0.00;0.00;;;;;;;;;;5101647;28;20223;-72
2022/06/04 08:27:24;;;;;;;0.00;0.00;;;;;;;;;;5123360;28;20536;-74
2022/06/04 08:29:52;;;;;;;0.00;0.00;;;;;;;;;;5101495;28;20212;-74
2022/06/04 08:32:18;;;;;;;0.00;0.00;;;;;;;;;;5123165;28;20250;-75
2022/06/04 08:34:45;;;;;;;0.00;0.00;;;;;;;;;;5101543;28;20224;-74
2022/06/04 08:37:13;;;;;;;0.00;0.00;;;;;;;;;;5123248;28;20498;-75
2022/06/04 08:39:39;;;;;;;0.00;0.00;;;;;;;;;;5100826;28;20203;-74
2022/06/04 08:42:17;;;;;;;0.03;0.03;;;;;;;;;;5122572;28;20240;-75
2022/06/04 08:44:45;;;;;;;0.10;0.10;;;;;;;;;;5101103;28;20188;-73
2022/06/04 08:47:15;;;;;;;0.10;0.10;;;;;;;;;;5123366;27;20273;-72
2022/06/04 08:49:43;;;;;;;0.05;0.05;;;;;;;;;;5104831;28;20206;-73
2022/06/04 08:52:11;;;;;;;0.00;0.00;;;;;;;;;;5127048;27;20247;-74
2022/06/04 08:57:35;;;;;;;0.00;0.00;;;;;;;;;;5127109;27;20295;-74
2022/06/04 09:00:06;;;;;;;0.00;0.00;;;;;;;;;;5104951;28;20198;-72
2022/06/04 09:02:39;;;;;;;0.00;0.00;;;;;;;;;;5092895;28;20221;-72
2022/06/04 09:05:13;;;;;;;0.10;0.10;;;;;;;;;;5094752;28;20476;-72
2022/06/04 09:07:41;;;;;;;0.08;0.08;;;;;;;;;;5134591;27;20212;-74
2022/06/04 09:10:14;;;;;;;0.08;0.08;;;;;;;;;;5094423;27;20266;-75
2022/06/04 09:12:42;;;;;;;0.00;0.00;;;;;;;;;;5134708;27;20234;-73
2022/06/04 09:15:13;;;;;;;0.00;0.00;;;;;;;;;;5095299;27;20250;-73
2022/06/04 09:17:42;;;;;;;0.00;0.00;;;;;;;;;;5134606;27;20269;-75
2022/06/04 09:20:18;;;;;;;0.10;0.10;;;;;;;;;;5095205;27;20289;-73
2022/06/04 09:22:45;;;;;;;0.00;0.00;;;;;;;;;;5133432;27;20540;-73
2022/06/04 09:25:14;;;;;;;0.00;0.00;;;;;;;;;;5095270;27;20273;-74
2022/06/04 09:27:43;;;;;;;0.00;0.00;;;;;;;;;;5134778;27;20303;-74
2022/06/04 09:30:13;;;;;;;0.00;0.00;;;;;;;;;;5095042;27;20203;-75
2022/06/04 09:32:47;;;;;;;0.05;0.05;;;;;;;;;;5134302;27;20406;-78
2022/06/04 09:35:15;;;;;;;0.00;0.00;;;;;;;;;;5096341;27;20217;-76
2022/06/04 09:37:42;;;;;;;0.00;0.00;;;;;;;;;;5133988;27;20429;-77
2022/06/04 09:40:18;;;;;;;0.00;0.00;;;;;;;;;;5094507;27;20368;-74
2022/06/04 09:42:44;;;;;;;0.00;0.00;;;;;;;;;;5133337;27;20217;-74
2022/06/04 09:45:17;;;;;;;0.00;0.00;;;;;;;;;;5094899;27;20199;-74
2022/06/04 09:47:44;;;;;;;0.00;0.00;;;;;;;;;;5133142;27;20483;-74
2022/06/04 09:50:19;;;;;;;0.10;0.10;;;;;;;;;;5095291;27;20275;-73
2022/06/04 09:52:47;;;;;;;0.00;0.00;;;;;;;;;;5133161;27;20285;-73
2022/06/04 09:55:17;;;;;;;0.00;0.00;;;;;;;;;;5096042;27;20582;-75
2022/06/04 09:57:54;;;;;;;0.00;0.00;;;;;;;;;;5133325;27;20286;-74
2022/06/04 10:00:22;;;;;;;0.00;0.00;;;;;;;;;;5096902;27;20258;-73
2022/06/04 10:02:55;;;;;;;0.00;0.00;;;;;;;;;;5131875;27;20405;-74
2022/06/04 10:05:23;;;;;;;0.00;0.00;;;;;;;;;;5098193;27;20201;-75
2022/06/04 10:07:50;;;;;;;0.00;0.00;;;;;;;;;;5131277;27;20255;-75
2022/06/04 10:10:23;;;;;;;0.10;0.10;;;;;;;;;;5096048;27;20204;-75
2022/06/04 10:15:38;;;;;;;0.00;0.00;;;;;;;;;;5100615;27;20281;-77
2022/06/04 10:18:09;;;;;;;0.00;0.00;;;;;;;;;;5126929;27;20489;-77
2022/06/04 10:20:35;;;;;;;0.05;0.05;;;;;;;;;;5101093;27;20241;-77
2022/06/04 10:23:01;;;;;;;0.00;0.00;;;;;;;;;;5127476;27;20215;-77
2022/06/04 10:25:34;;;;;;;0.10;0.10;;;;;;;;;;5098863;27;20240;-77
2022/06/04 10:28:07;;;;;;;0.00;0.00;;;;;;;;;;5127541;27;20232;-77
2022/06/04 10:30:36;;;;;;;0.00;0.00;;;;;;;;;;5100207;27;20576;-77
2022/06/04 10:33:06;;;;;;;0.00;0.00;;;;;;;;;;5126846;27;20217;-77
2022/06/04 10:35:48;;;;;;;0.10;0.10;;;;;;;;;;5099854;27;20301;-77
2022/06/04 10:38:19;;;;;;;0.10;0.10;;;;;;;;;;5123337;27;20241;-76
2022/06/04 10:40:55;;;;;;;0.00;0.00;;;;;;;;;;5103256;27;20249;-73
2022/06/04 10:43:30;;;;;;;0.00;0.00;;;;;;;;;;5121612;27;20213;-74
2022/06/04 10:46:04;;;;;;;0.00;0.00;;;;;;;;;;5106399;27;20544;-74
2022/06/04 10:48:38;;;;;;;0.00;0.00;;;;;;;;;;5118914;27;20371;-74
2022/06/04 10:51:27;;;;;;;0.00;0.00;;;;;;;;;;5108371;27;20252;-75
2022/06/04 10:54:02;;;;;;;0.00;0.00;;;;;;;;;;5112607;27;20277;-75
2022/06/04 10:56:34;;;;;;;0.00;0.00;;;;;;;;;;5114124;27;20242;-74
2022/06/04 10:59:04;;;;;;;0.00;0.00;;;;;;;;;;5110429;27;20503;-74
2022/06/04 11:01:32;;;;;;;0.00;0.00;;;;;;;;;;5114426;27;20255;-74
2022/06/04 11:04:04;;;;;;;0.00;0.00;;;;;;;;;;5111398;27;20205;-74
2022/06/04 11:06:33;;;;;;;0.00;0.00;;;;;;;;;;5115304;27;20243;-74
2022/06/04 11:09:02;;;;;;;0.00;0.00;;;;;;;;;;5111065;27;20224;-75
2022/06/04 11:11:32;;;;;;;0.00;0.00;;;;;;;;;;5114525;27;20348;-75
2022/06/04 11:14:02;;;;;;;0.00;0.00;;;;;;;;;;5111393;27;20205;-74
2022/06/04 11:16:33;;;;;;;0.00;0.00;;;;;;;;;;5114563;27;20330;-74
2022/06/04 11:19:03;;;;;;;0.00;0.00;;;;;;;;;;5110687;27;20216;-74
2022/06/04 11:21:37;;;;;;;0.00;0.00;;;;;;;;;;5115157;27;20309;-74
2022/06/04 11:24:09;;;;;;;0.00;0.00;;;;;;;;;;5109836;27;20205;-74
2022/06/04 11:26:38;;;;;;;0.00;0.00;;;;;;;;;;5116310;27;20241;-74
2022/06/04 11:29:06;;;;;;;0.00;0.00;;;;;;;;;;5109644;27;20497;-74
2022/06/04 11:31:41;;;;;;;0.00;0.00;;;;;;;;;;5115459;27;20463;-74
2022/06/04 11:34:22;;;;;;;0.00;0.00;;;;;;;;;;5108232;27;20205;-75
2022/06/04 11:36:56;;;;;;;0.00;0.00;;;;;;;;;;5117402;27;20564;-72
2022/06/04 11:39:34;;;;;;;0.00;0.00;;;;;;;;;;5104199;27;20285;-75
2022/06/04 11:42:02;;;;;;;0.00;0.00;;;;;;;;;;5123003;27;20307;-74
2022/06/04 11:44:47;;;;;;;0.00;0.00;;;;;;;;;;5102717;28;20256;-74
2022/06/04 11:47:20;;;;;;;0.00;0.00;;;;;;;;;;5124093;27;20380;-71
2022/06/04 11:49:50;;;;;;;0.00;0.00;;;;;;;;;;5102062;28;20195;-74
2022/06/04 11:52:23;;;;;;;0.00;0.00;;;;;;;;;;5124014;28;20442;-74
2022/06/04 11:54:56;;;;;;;0.00;0.00;;;;;;;;;;5102298;28;20258;-75
2022/06/04 11:57:28;;;;;;;0.10;0.10;;;;;;;;;;5124301;28;20240;-74
2022/06/04 12:00:00;;;;;;;0.00;0.00;;;;;;;;;;5101875;28;20191;-76
2022/06/04 12:02:29;;;;;;;0.00;0.00;;;;;;;;;;5124270;28;20388;-77
2022/06/04 12:05:02;;;;;;;0.00;0.00;;;;;;;;;;5101558;28;20436;-76
2022/06/04 12:07:32;;;;;;;0.00;0.00;;;;;;;;;;5123955;28;20318;-76
2022/06/04 12:10:00;;;;;;;0.00;0.00;;;;;;;;;;5101864;28;20405;-76
2022/06/04 12:12:30;;;;;;;0.00;0.00;;;;;;;;;;5124488;28;20237;-76
2022/06/04 12:14:59;;;;;;;0.00;0.00;;;;;;;;;;5102343;28;20222;-77
2022/06/04 12:17:28;;;;;;;0.00;0.00;;;;;;;;;;5124046;28;20252;-74
2022/06/04 12:25:34;;;;;;;0.00;0.00;;;;;;;;;;5103135;27;20313;-74
2022/06/04 12:28:01;;;;;;;0.00;0.00;;;;;;;;;;5130587;27;20474;-74
2022/06/04 12:30:39;;;;;;;0.00;0.00;;;;;;;;;;5100239;27;20304;-65
2022/06/04 12:33:09;;;;;;;0.00;0.00;;;;;;;;;;5129378;27;20278;-65
2022/06/04 12:35:37;;;;;;;0.00;0.00;;;;;;;;;;5103465;27;20286;-65
2022/06/04 12:38:12;;;;;;;0.00;0.00;;;;;;;;;;5129741;27;20213;-63
2022/06/04 12:40:39;;;;;;;0.00;0.00;;;;;;;;;;5104330;27;20248;-64
2022/06/04 12:43:21;;;;;;;0.00;0.00;;;;;;;;;;5128872;27;20244;-65
2022/06/04 12:45:49;;;;;;;0.00;0.00;;;;;;;;;;5106827;27;20244;-63
2022/06/04 12:48:25;;;;;;;0.00;0.00;;;;;;;;;;5125993;27;20203;-64
2022/06/04 12:50:59;;;;;;;0.00;0.00;;;;;;;;;;5107317;27;20241;-64
2022/06/04 12:53:26;;;;;;;0.00;0.00;;;;;;;;;;5123523;27;20252;-64
2022/06/04 12:55:54;;;;;;;0.00;0.00;;;;;;;;;;5107466;27;20236;-63
2022/06/04 12:58:28;;;;;;;0.00;0.00;;;;;;;;;;5124521;27;20203;-64
2022/06/04 13:00:55;;;;;;;0.00;0.00;;;;;;;;;;5108385;27;20344;-64
2022/06/04 13:03:37;;;;;;;0.00;0.00;;;;;;;;;;5124397;27;20412;-63
2022/06/04 13:06:16;;;;;;;0.00;0.00;;;;;;;;;;5110253;27;20241;-63
2022/06/04 13:08:46;;;;;;;0.05;0.05;;;;;;;;;;5118853;27;20456;-64
2022/06/04 13:11:21;;;;;;;0.10;0.10;;;;;;;;;;5112891;27;20265;-65
2022/06/04 13:13:52;;;;;;;0.00;0.00;;;;;;;;;;5116860;27;20203;-64
2022/06/04 13:16:20;;;;;;;0.00;0.00;;;;;;;;;;5114534;27;20299;-64
2022/06/04 13:18:48;;;;;;;0.00;0.00;;;;;;;;;;5117171;27;20207;-64
2022/06/04 13:21:18;;;;;;;0.00;0.00;;;;;;;;;;5113484;27;20237;-65
2022/06/04 13:23:45;;;;;;;0.00;0.00;;;;;;;;;;5117705;27;20392;-65
2022/06/04 13:26:30;;;;;;;0.00;0.00;;;;;;;;;;5112156;27;20251;-63
2022/06/04 13:28:57;;;;;;;0.00;0.00;;;;;;;;;;5114264;27;20203;-63
2022/06/04 13:31:25;;;;;;;0.00;0.00;;;;;;;;;;5115420;27;20443;-63
2022/06/04 13:33:52;;;;;;;0.00;0.00;;;;;;;;;;5115342;27;20207;-64
2022/06/04 13:36:21;;;;;;;0.00;0.00;;;;;;;;;;5113852;27;20272;-64
2022/06/04 13:38:49;;;;;;;0.00;0.00;;;;;;;;;;5116643;27;20393;-63
2022/06/04 13:42:00;;;;;;;0.08;0.08;;;;;;;;;;5112117;27;20289;-63
2022/06/04 13:44:05;;;;;;;0.00;0.00;;;;;;;;;;5112669;27;20202;-63
2022/06/04 13:46:32;;;;;;;0.00;0.00;;;;;;;;;;5117748;27;20318;-64
2022/06/04 13:49:03;;;;;;;0.00;0.00;;;;;;;;;;5113407;27;20251;-65
2022/06/04 13:51:31;;;;;;;0.00;0.00;;;;;;;;;;5117020;27;20273;-63
2022/06/04 13:53:58;;;;;;;0.00;0.00;;;;;;;;;;5113764;27;20466;-63
2022/06/04 13:56:28;;;;;;;0.00;0.00;;;;;;;;;;5115061;27;20436;-64
2022/06/04 13:58:55;;;;;;;0.00;0.00;;;;;;;;;;5114643;27;20225;-63
2022/06/04 14:01:22;;;;;;;0.00;0.00;;;;;;;;;;5114454;27;20596;-64
2022/06/04 14:03:50;;;;;;;0.00;0.00;;;;;;;;;;5115708;27;20544;-65
2022/06/04 14:06:19;;;;;;;0.00;0.00;;;;;;;;;;5112765;27;20233;-65
2022/06/04 14:08:48;;;;;;;0.05;0.05;;;;;;;;;;5116623;27;20495;-65
2022/06/04 14:11:22;;;;;;;0.00;0.00;;;;;;;;;;5111895;27;20292;-64
2022/06/04 14:14:00;;;;;;;0.00;0.00;;;;;;;;;;5116356;27;20253;-64
2022/06/04 14:16:37;;;;;;;0.00;0.00;;;;;;;;;;5115535;27;20301;-66
2022/06/04 14:19:13;;;;;;;0.10;0.10;;;;;;;;;;5111359;27;20458;-65
2022/06/04 14:21:47;;;;;;;0.00;0.00;;;;;;;;;;5119292;27;20243;-64
2022/06/04 14:24:19;;;;;;;0.00;0.00;;;;;;;;;;5108496;27;20234;-64
2022/06/04 14:26:48;;;;;;;0.00;0.00;;;;;;;;;;5120688;27;20233;-63
2022/06/04 14:29:20;;;;;;;0.00;0.00;;;;;;;;;;5108107;27;20207;-65
2022/06/04 14:31:51;;;;;;;0.00;0.00;;;;;;;;;;5121284;27;20281;-63
2022/06/04 14:34:18;;;;;;;0.00;0.00;;;;;;;;;;5106845;27;20392;-65
2022/06/04 14:36:48;;;;;;;0.05;0.05;;;;;;;;;;5120304;27;20241;-64
2022/06/04 14:39:17;;;;;;;0.00;0.00;;;;;;;;;;5107845;27;20250;-64
2022/06/04 14:42:01;;;;;;;0.00;0.00;;;;;;;;;;5119856;27;20255;-64
2022/06/04 14:44:35;;;;;;;0.00;0.00;;;;;;;;;;5104336;27;20269;-64
2022/06/04 14:47:18;;;;;;;0.00;0.00;;;;;;;;;;5123838;27;20253;-64
2022/06/04 14:50:01;;;;;;;0.00;0.00;;;;;;;;;;5103430;28;20191;-63
2022/06/04 14:52:32;;;;;;;0.03;0.03;;;;;;;;;;5124983;27;20358;-63
2022/06/04 14:55:06;;;;;;;0.00;0.00;;;;;;;;;;5103057;28;20191;-65
2022/06/04 14:57:43;;;;;;;0.00;0.00;;;;;;;;;;5091180;28;20295;-64
2022/06/04 15:00:18;;;;;;;0.00;0.00;;;;;;;;;;5093797;27;20202;-64
2022/06/04 15:03:02;;;;;;;0.00;0.00;;;;;;;;;;5131605;27;20296;-63
2022/06/04 15:05:32;;;;;;;0.00;0.00;;;;;;;;;;5098736;27;20321;-73
2022/06/04 15:08:22;;;;;;;0.00;0.00;;;;;;;;;;5127476;27;20263;-72
2022/06/04 15:10:55;;;;;;;0.00;0.00;;;;;;;;;;5104392;27;20344;-72
2022/06/04 15:13:26;;;;;;;0.00;0.00;;;;;;;;;;5121841;27;20214;-71